Marble Rock, IA (50653)

10:50 PM CDT on September 27, 2016 (GMT -0500)
IEM | | Change Station

Elev 1036 ft 43.05 °N, 92.93 °W | Updated 50 minutes ago

Overcast
Overcast
54 °F
Feels Like 54 °F
N
5
Wind Variable Wind from NE
Gusts 0.0 mph

Today
High -- | Low -- °F
--% Chance of Precip.
Yesterday
High -- | Low -- °F
Precip. -- in
Pressure 29.85 in
Visibility 10.0 miles
Clouds Overcast 6500 ft
Dew Point 46 °F
Humidity 77%
Rainfall in
Snow Depth Not available.
7:04 AM 6:58 PM
Waning Crescent, 8% visible
METAR KCCY 280355Z AUTO 36009KT 10SM OVC065 11/07 A2985 RMK AO2
Pressure 29.85 in
Visibility 10.0 miles
Clouds Overcast 6500 ft
Dew Point 46 °F
Humidity 77%
Rainfall in
Snow Depth Not available.
7:04 AM 6:58 PM
Waning Crescent, 8% visible
METAR KCCY 280355Z AUTO 36009KT 10SM OVC065 11/07 A2985 RMK AO2

10-Day Weather Forecast

Almanac

Astronomy

Sep. 27, 2016 Rise Set
Actual Time
Civil Twilight
Nautical Twilight
Astronomical Twilight
Moon
Length of Visible Light
Length of Day
Tomorrow will be .
, % of the Moon is Illuminated

Today's Extremes

State Highs State Lows

Community

WunderPhotos

Upload Photos

1,942,203 photos uploaded!

WunderBlog® & News

Nearby

Air Quality

  Air Quality AQ Index Pollutant
Not available.

Snow Depth

Station Depth Elevation

Earthquake Activity

City Distance Mag. Time & Date
Minimum magnitude displayed is 2.5.

Coastal Water Temperatures

Place Temperature

Stations

Nearby Weather Stations

Station Location Temp. Windchill Dew Point Humidity Wind Precip. Elev Updated Type
                   

Watches & Warnings

There are currently no watches in effect.